sensor_id;sensor_type;location;lat;lon;timestamp;pressure;altitude;pressure_sealevel;temperature;humidity
38939;BME280;24211;49.980;19.776;2024-01-07T00:00:16;98754.69;;;1.27;100.00
38939;BME280;24211;49.980;19.776;2024-01-07T00:03:05;98749.97;;;1.22;100.00
38939;BME280;24211;49.980;19.776;2024-01-07T00:05:35;98759.50;;;1.23;100.00
38939;BME280;24211;49.980;19.776;2024-01-07T00:08:04;98756.97;;;1.15;100.00
38939;BME280;24211;49.980;19.776;2024-01-07T00:10:33;98764.63;;;1.40;100.00
38939;BME280;24211;49.980;19.776;2024-01-07T00:13:01;98760.41;;;1.30;100.00
38939;BME280;24211;49.980;19.776;2024-01-07T00:15:29;98764.44;;;1.41;100.00
38939;BME280;24211;49.980;19.776;2024-01-07T00:17:57;98766.00;;;0.98;100.00
38939;BME280;24211;49.980;19.776;2024-01-07T00:20:24;98766.47;;;1.16;100.00
38939;BME280;24211;49.980;19.776;2024-01-07T00:23:16;98775.94;;;0.88;100.00
38939;BME280;24211;49.980;19.776;2024-01-07T00:25:43;98781.69;;;1.06;100.00
38939;BME280;24211;49.980;19.776;2024-01-07T00:28:11;98788.16;;;1.18;100.00
38939;BME280;24211;49.980;19.776;2024-01-07T00:30:38;98780.56;;;1.23;100.00
38939;BME280;24211;49.980;19.776;2024-01-07T00:33:06;98774.94;;;1.26;100.00
38939;BME280;24211;49.980;19.776;2024-01-07T00:35:58;98776.06;;;1.47;100.00
38939;BME280;24211;49.980;19.776;2024-01-07T00:38:26;98771.72;;;1.54;100.00
38939;BME280;24211;49.980;19.776;2024-01-07T00:40:53;98773.72;;;1.52;100.00
38939;BME280;24211;49.980;19.776;2024-01-07T00:43:20;98770.97;;;1.45;100.00
38939;BME280;24211;49.980;19.776;2024-01-07T00:46:14;98774.13;;;1.41;100.00
38939;BME280;24211;49.980;19.776;2024-01-07T00:48:41;98772.88;;;1.51;100.00
38939;BME280;24211;49.980;19.776;2024-01-07T00:51:08;98781.69;;;1.73;100.00
38939;BME280;24211;49.980;19.776;2024-01-07T00:53:39;98784.97;;;1.60;100.00
38939;BME280;24211;49.980;19.776;2024-01-07T00:56:06;98783.44;;;1.66;100.00
38939;BME280;24211;49.980;19.776;2024-01-07T00:58:36;98787.28;;;1.41;100.00
38939;BME280;24211;49.980;19.776;2024-01-07T01:02:02;98794.66;;;1.45;100.00
38939;BME280;24211;49.980;19.776;2024-01-07T01:04:33;98787.16;;;1.57;100.00
38939;BME280;24211;49.980;19.776;2024-01-07T01:07:14;98787.72;;;1.67;100.00
38939;BME280;24211;49.980;19.776;2024-01-07T01:09:43;98794.44;;;1.69;100.00
38939;BME280;24211;49.980;19.776;2024-01-07T01:12:17;98790.22;;;1.75;100.00
38939;BME280;24211;49.980;19.776;2024-01-07T01:15:36;98802.19;;;1.33;100.00
38939;BME280;24211;49.980;19.776;2024-01-07T01:18:41;98801.47;;;1.40;100.00
38939;BME280;24211;49.980;19.776;2024-01-07T01:21:09;98799.47;;;1.42;100.00
38939;BME280;24211;49.980;19.776;2024-01-07T01:23:36;98800.66;;;1.39;100.00
38939;BME280;24211;49.980;19.776;2024-01-07T01:26:04;98800.66;;;1.39;100.00
38939;BME280;24211;49.980;19.776;2024-01-07T01:28:31;98805.81;;;1.33;100.00
38939;BME280;24211;49.980;19.776;2024-01-07T01:31:24;98804.78;;;0.96;100.00
38939;BME280;24211;49.980;19.776;2024-01-07T01:34:46;98801.41;;;1.10;100.00
38939;BME280;24211;49.980;19.776;2024-01-07T01:37:13;98819.41;;;0.99;100.00
38939;BME280;24211;49.980;19.776;2024-01-07T01:39:41;98814.38;;;1.12;100.00
38939;BME280;24211;49.980;19.776;2024-01-07T01:42:08;98816.84;;;0.91;100.00
38939;BME280;24211;49.980;19.776;2024-01-07T01:44:46;98811.56;;;1.13;100.00
38939;BME280;24211;49.980;19.776;2024-01-07T01:47:13;98818.03;;;0.88;100.00
38939;BME280;24211;49.980;19.776;2024-01-07T01:54:14;98803.94;;;1.18;100.00
38939;BME280;24211;49.980;19.776;2024-01-07T01:56:42;98815.19;;;1.12;100.00
38939;BME280;24211;49.980;19.776;2024-01-07T02:02:55;98820.94;;;0.93;100.00
38939;BME280;24211;49.980;19.776;2024-01-07T02:05:22;98825.63;;;0.83;100.00
38939;BME280;24211;49.980;19.776;2024-01-07T02:07:50;98835.84;;;0.78;100.00
38939;BME280;24211;49.980;19.776;2024-01-07T02:10:29;98829.97;;;0.68;100.00
38939;BME280;24211;49.980;19.776;2024-01-07T02:13:27;98832.03;;;0.81;100.00
38939;BME280;24211;49.980;19.776;2024-01-07T02:15:55;98829.41;;;0.50;100.00
38939;BME280;24211;49.980;19.776;2024-01-07T02:18:23;98843.09;;;0.07;100.00
38939;BME280;24211;49.980;19.776;2024-01-07T02:20:50;98839.13;;;0.11;100.00
38939;BME280;24211;49.980;19.776;2024-01-07T02:23:18;98849.38;;;-0.03;100.00
38939;BME280;24211;49.980;19.776;2024-01-07T02:25:45;98858.63;;;0.55;100.00
38939;BME280;24211;49.980;19.776;2024-01-07T02:28:21;98867.03;;;0.50;100.00
38939;BME280;24211;49.980;19.776;2024-01-07T02:31:53;98872.22;;;0.28;100.00
38939;BME280;24211;49.980;19.776;2024-01-07T02:34:21;98860.03;;;0.35;100.00
38939;BME280;24211;49.980;19.776;2024-01-07T02:36:48;98866.09;;;0.43;100.00
38939;BME280;24211;49.980;19.776;2024-01-07T02:39:20;98863.28;;;0.45;100.00
38939;BME280;24211;49.980;19.776;2024-01-07T02:41:47;98866.16;;;0.66;100.00
38939;BME280;24211;49.980;19.776;2024-01-07T02:44:30;98868.88;;;0.42;100.00
38939;BME280;24211;49.980;19.776;2024-01-07T02:46:57;98865.78;;;0.38;100.00
38939;BME280;24211;49.980;19.776;2024-01-07T02:49:24;98857.97;;;0.61;100.00
38939;BME280;24211;49.980;19.776;2024-01-07T02:51:54;98864.94;;;0.46;100.00
38939;BME280;24211;49.980;19.776;2024-01-07T02:54:24;98862.25;;;0.15;100.00
38939;BME280;24211;49.980;19.776;2024-01-07T02:57:19;98873.13;;;0.12;100.00
38939;BME280;24211;49.980;19.776;2024-01-07T03:00:07;98878.84;;;0.54;100.00
38939;BME280;24211;49.980;19.776;2024-01-07T03:02:47;98875.97;;;0.72;100.00
38939;BME280;24211;49.980;19.776;2024-01-07T03:05:15;98878.22;;;0.83;100.00
38939;BME280;24211;49.980;19.776;2024-01-07T03:07:54;98874.91;;;0.81;100.00
38939;BME280;24211;49.980;19.776;2024-01-07T03:10:41;98877.06;;;0.47;100.00
38939;BME280;24211;49.980;19.776;2024-01-07T03:13:08;98862.41;;;0.60;100.00
38939;BME280;24211;49.980;19.776;2024-01-07T03:15:36;98854.84;;;0.88;100.00
38939;BME280;24211;49.980;19.776;2024-01-07T03:18:03;98854.69;;;0.82;100.00
38939;BME280;24211;49.980;19.776;2024-01-07T03:20:34;98852.84;;;0.90;100.00
38939;BME280;24211;49.980;19.776;2024-01-07T03:23:01;98853.59;;;0.76;100.00
38939;BME280;24211;49.980;19.776;2024-01-07T03:25:58;98875.63;;;0.75;100.00
38939;BME280;24211;49.980;19.776;2024-01-07T03:28:25;98869.25;;;0.70;100.00
38939;BME280;24211;49.980;19.776;2024-01-07T03:30:53;98877.28;;;0.76;100.00
38939;BME280;24211;49.980;19.776;2024-01-07T03:34:18;98854.47;;;0.91;100.00
38939;BME280;24211;49.980;19.776;2024-01-07T03:37:10;98856.59;;;0.73;100.00
38939;BME280;24211;49.980;19.776;2024-01-07T03:39:53;98848.88;;;0.94;100.00
38939;BME280;24211;49.980;19.776;2024-01-07T03:42:20;98843.00;;;0.84;100.00
38939;BME280;24211;49.980;19.776;2024-01-07T03:44:47;98845.59;;;0.92;100.00
38939;BME280;24211;49.980;19.776;2024-01-07T03:47:49;98845.25;;;0.95;100.00
38939;BME280;24211;49.980;19.776;2024-01-07T03:50:20;98839.84;;;0.89;100.00
38939;BME280;24211;49.980;19.776;2024-01-07T03:52:55;98842.41;;;1.05;100.00
38939;BME280;24211;49.980;19.776;2024-01-07T03:55:28;98859.50;;;1.01;100.00
38939;BME280;24211;49.980;19.776;2024-01-07T03:57:55;98852.91;;;0.82;100.00
38939;BME280;24211;49.980;19.776;2024-01-07T04:00:22;98861.50;;;0.99;100.00
38939;BME280;24211;49.980;19.776;2024-01-07T04:02:59;98853.88;;;0.81;100.00
38939;BME280;24211;49.980;19.776;2024-01-07T04:05:32;98866.47;;;0.94;100.00
38939;BME280;24211;49.980;19.776;2024-01-07T04:08:15;98869.53;;;0.75;100.00
38939;BME280;24211;49.980;19.776;2024-01-07T04:10:42;98861.63;;;0.83;100.00
38939;BME280;24211;49.980;19.776;2024-01-07T04:13:22;98868.72;;;0.74;100.00
38939;BME280;24211;49.980;19.776;2024-01-07T04:15:49;98878.38;;;0.51;100.00
38939;BME280;24211;49.980;19.776;2024-01-07T04:18:16;98885.41;;;0.58;100.00
38939;BME280;24211;49.980;19.776;2024-01-07T04:21:10;98899.88;;;0.16;100.00
38939;BME280;24211;49.980;19.776;2024-01-07T04:23:47;98904.34;;;0.54;100.00
38939;BME280;24211;49.980;19.776;2024-01-07T04:26:39;98907.00;;;0.46;100.00
38939;BME280;24211;49.980;19.776;2024-01-07T04:29:08;98908.72;;;0.61;100.00
38939;BME280;24211;49.980;19.776;2024-01-07T04:31:51;98892.31;;;0.59;100.00
38939;BME280;24211;49.980;19.776;2024-01-07T04:34:19;98890.59;;;0.75;100.00
38939;BME280;24211;49.980;19.776;2024-01-07T04:40:57;98888.75;;;0.83;100.00
38939;BME280;24211;49.980;19.776;2024-01-07T04:47:55;98877.34;;;0.60;100.00
38939;BME280;24211;49.980;19.776;2024-01-07T04:50:22;98882.81;;;0.50;100.00
38939;BME280;24211;49.980;19.776;2024-01-07T04:52:58;98893.22;;;0.44;100.00
38939;BME280;24211;49.980;19.776;2024-01-07T04:55:25;98895.09;;;0.58;100.00
38939;BME280;24211;49.980;19.776;2024-01-07T04:58:52;98929.78;;;0.15;100.00
38939;BME280;24211;49.980;19.776;2024-01-07T05:01:20;98941.25;;;0.14;100.00
38939;BME280;24211;49.980;19.776;2024-01-07T05:03:47;98938.53;;;0.46;100.00
38939;BME280;24211;49.980;19.776;2024-01-07T05:06:17;98931.31;;;0.40;100.00
38939;BME280;24211;49.980;19.776;2024-01-07T05:12:28;98920.81;;;0.40;100.00
38939;BME280;24211;49.980;19.776;2024-01-07T05:15:47;98911.63;;;0.36;100.00
38939;BME280;24211;49.980;19.776;2024-01-07T05:18:24;98917.31;;;0.55;100.00
38939;BME280;24211;49.980;19.776;2024-01-07T05:20:52;98905.44;;;0.59;100.00
38939;BME280;24211;49.980;19.776;2024-01-07T05:24:18;98908.84;;;0.76;100.00
38939;BME280;24211;49.980;19.776;2024-01-07T05:26:46;98914.03;;;0.84;100.00
38939;BME280;24211;49.980;19.776;2024-01-07T05:29:14;98912.13;;;0.39;100.00
38939;BME280;24211;49.980;19.776;2024-01-07T05:31:41;98913.22;;;0.53;100.00
38939;BME280;24211;49.980;19.776;2024-01-07T05:34:35;98914.56;;;0.41;100.00
38939;BME280;24211;49.980;19.776;2024-01-07T05:37:02;98914.34;;;0.58;100.00
38939;BME280;24211;49.980;19.776;2024-01-07T05:48:06;98918.03;;;0.72;100.00
38939;BME280;24211;49.980;19.776;2024-01-07T05:50:48;98921.59;;;0.87;100.00
38939;BME280;24211;49.980;19.776;2024-01-07T05:53:17;98924.59;;;1.07;100.00
38939;BME280;24211;49.980;19.776;2024-01-07T05:55:46;98926.19;;;0.93;100.00
38939;BME280;24211;49.980;19.776;2024-01-07T05:58:14;98922.66;;;0.70;100.00
38939;BME280;24211;49.980;19.776;2024-01-07T06:00:41;98919.25;;;0.92;100.00
38939;BME280;24211;49.980;19.776;2024-01-07T06:03:37;98925.38;;;0.54;100.00
38939;BME280;24211;49.980;19.776;2024-01-07T06:06:05;98932.88;;;0.65;100.00
38939;BME280;24211;49.980;19.776;2024-01-07T06:08:33;98936.03;;;0.60;100.00
38939;BME280;24211;49.980;19.776;2024-01-07T06:11:03;98942.03;;;0.69;100.00
38939;BME280;24211;49.980;19.776;2024-01-07T06:13:31;98944.97;;;0.74;100.00
38939;BME280;24211;49.980;19.776;2024-01-07T06:15:58;98944.31;;;0.80;100.00
38939;BME280;24211;49.980;19.776;2024-01-07T06:18:25;98944.03;;;0.67;100.00
38939;BME280;24211;49.980;19.776;2024-01-07T06:20:53;98944.53;;;0.24;100.00
38939;BME280;24211;49.980;19.776;2024-01-07T06:23:20;98945.09;;;0.50;100.00
38939;BME280;24211;49.980;19.776;2024-01-07T06:25:47;98949.69;;;0.56;100.00
38939;BME280;24211;49.980;19.776;2024-01-07T06:28:37;98941.63;;;0.57;100.00
38939;BME280;24211;49.980;19.776;2024-01-07T06:31:05;98953.50;;;0.45;100.00
38939;BME280;24211;49.980;19.776;2024-01-07T06:33:33;98952.00;;;0.43;100.00
38939;BME280;24211;49.980;19.776;2024-01-07T06:36:01;98947.19;;;0.54;100.00
38939;BME280;24211;49.980;19.776;2024-01-07T06:38:29;98958.34;;;0.64;100.00
38939;BME280;24211;49.980;19.776;2024-01-07T06:40:59;98960.47;;;0.69;100.00
38939;BME280;24211;49.980;19.776;2024-01-07T06:43:31;98963.56;;;0.81;100.00
38939;BME280;24211;49.980;19.776;2024-01-07T06:45:59;98970.22;;;0.91;100.00
38939;BME280;24211;49.980;19.776;2024-01-07T06:48:28;98969.34;;;0.76;100.00
38939;BME280;24211;49.980;19.776;2024-01-07T06:50:55;98974.94;;;0.65;100.00
38939;BME280;24211;49.980;19.776;2024-01-07T06:53:24;98971.50;;;0.64;100.00
38939;BME280;24211;49.980;19.776;2024-01-07T06:55:51;98968.72;;;0.58;100.00
38939;BME280;24211;49.980;19.776;2024-01-07T06:58:19;98975.16;;;0.55;100.00
38939;BME280;24211;49.980;19.776;2024-01-07T07:00:46;98980.81;;;0.75;100.00
38939;BME280;24211;49.980;19.776;2024-01-07T07:03:13;98986.22;;;0.82;100.00
38939;BME280;24211;49.980;19.776;2024-01-07T07:05:41;98985.88;;;0.85;100.00
38939;BME280;24211;49.980;19.776;2024-01-07T07:08:09;98988.00;;;0.89;100.00
38939;BME280;24211;49.980;19.776;2024-01-07T07:10:36;98992.59;;;0.95;100.00
38939;BME280;24211;49.980;19.776;2024-01-07T07:13:04;98995.84;;;0.97;100.00
38939;BME280;24211;49.980;19.776;2024-01-07T07:15:31;98996.91;;;0.88;100.00
38939;BME280;24211;49.980;19.776;2024-01-07T07:17:59;98996.53;;;0.91;100.00
38939;BME280;24211;49.980;19.776;2024-01-07T07:20:26;99004.28;;;0.93;100.00
38939;BME280;24211;49.980;19.776;2024-01-07T07:22:54;99004.09;;;0.94;100.00
38939;BME280;24211;49.980;19.776;2024-01-07T07:25:21;98999.47;;;0.96;100.00
38939;BME280;24211;49.980;19.776;2024-01-07T07:27:48;99003.25;;;0.94;100.00
38939;BME280;24211;49.980;19.776;2024-01-07T07:30:16;99004.78;;;0.88;100.00
38939;BME280;24211;49.980;19.776;2024-01-07T07:32:43;99006.09;;;0.84;100.00
38939;BME280;24211;49.980;19.776;2024-01-07T07:35:12;99010.53;;;0.84;100.00
38939;BME280;24211;49.980;19.776;2024-01-07T07:37:39;99033.44;;;0.75;100.00
38939;BME280;24211;49.980;19.776;2024-01-07T07:40:07;99033.09;;;0.78;100.00
38939;BME280;24211;49.980;19.776;2024-01-07T07:42:34;99019.63;;;0.73;100.00
38939;BME280;24211;49.980;19.776;2024-01-07T07:45:02;99017.97;;;0.72;100.00
38939;BME280;24211;49.980;19.776;2024-01-07T07:47:31;99007.47;;;0.72;100.00
38939;BME280;24211;49.980;19.776;2024-01-07T07:49:58;99014.25;;;0.58;100.00
38939;BME280;24211;49.980;19.776;2024-01-07T07:52:28;99014.38;;;0.65;100.00
38939;BME280;24211;49.980;19.776;2024-01-07T07:54:55;99014.38;;;0.73;100.00
38939;BME280;24211;49.980;19.776;2024-01-07T07:57:23;99024.84;;;0.81;100.00
38939;BME280;24211;49.980;19.776;2024-01-07T07:59:52;99027.84;;;0.70;100.00
38939;BME280;24211;49.980;19.776;2024-01-07T08:02:25;99029.19;;;0.66;100.00
38939;BME280;24211;49.980;19.776;2024-01-07T08:04:52;99038.38;;;0.62;100.00
38939;BME280;24211;49.980;19.776;2024-01-07T08:07:20;99032.50;;;0.52;100.00
38939;BME280;24211;49.980;19.776;2024-01-07T08:09:47;99045.63;;;0.60;100.00
38939;BME280;24211;49.980;19.776;2024-01-07T08:12:15;99040.56;;;0.58;100.00
38939;BME280;24211;49.980;19.776;2024-01-07T08:14:46;99045.31;;;0.47;100.00
38939;BME280;24211;49.980;19.776;2024-01-07T08:17:13;99050.88;;;0.60;100.00
38939;BME280;24211;49.980;19.776;2024-01-07T08:19:41;99046.63;;;0.51;100.00
38939;BME280;24211;49.980;19.776;2024-01-07T08:22:15;99052.53;;;0.61;100.00
38939;BME280;24211;49.980;19.776;2024-01-07T08:24:42;99054.47;;;0.67;100.00
38939;BME280;24211;49.980;19.776;2024-01-07T08:27:09;99050.88;;;0.60;100.00
38939;BME280;24211;49.980;19.776;2024-01-07T08:29:47;99055.84;;;0.47;100.00
38939;BME280;24211;49.980;19.776;2024-01-07T08:32:45;99056.19;;;0.44;100.00
38939;BME280;24211;49.980;19.776;2024-01-07T08:35:13;99050.41;;;0.56;100.00
38939;BME280;24211;49.980;19.776;2024-01-07T08:37:46;99055.81;;;0.63;100.00
38939;BME280;24211;49.980;19.776;2024-01-07T08:40:14;99050.56;;;0.63;100.00
38939;BME280;24211;49.980;19.776;2024-01-07T08:42:42;99049.41;;;0.49;100.00
38939;BME280;24211;49.980;19.776;2024-01-07T08:45:10;99063.41;;;0.42;100.00
38939;BME280;24211;49.980;19.776;2024-01-07T08:47:38;99057.53;;;0.32;100.00
38939;BME280;24211;49.980;19.776;2024-01-07T08:50:11;99061.63;;;0.34;100.00
38939;BME280;24211;49.980;19.776;2024-01-07T08:52:40;99065.38;;;0.48;100.00
38939;BME280;24211;49.980;19.776;2024-01-07T08:55:08;99067.69;;;0.51;100.00
38939;BME280;24211;49.980;19.776;2024-01-07T08:57:39;99073.91;;;0.58;100.00
38939;BME280;24211;49.980;19.776;2024-01-07T09:00:07;99064.03;;;0.52;100.00
38939;BME280;24211;49.980;19.776;2024-01-07T09:02:37;99068.00;;;0.48;100.00
38939;BME280;24211;49.980;19.776;2024-01-07T09:05:09;99077.22;;;0.44;100.00
38939;BME280;24211;49.980;19.776;2024-01-07T09:07:37;99080.81;;;0.43;100.00
38939;BME280;24211;49.980;19.776;2024-01-07T09:10:29;99079.84;;;0.36;100.00
38939;BME280;24211;49.980;19.776;2024-01-07T09:12:56;99075.88;;;0.40;100.00
38939;BME280;24211;49.980;19.776;2024-01-07T09:19:07;99076.06;;;0.06;100.00
38939;BME280;24211;49.980;19.776;2024-01-07T09:25:17;99076.25;;;0.21;100.00
38939;BME280;24211;49.980;19.776;2024-01-07T09:27:59;99078.19;;;0.35;100.00
38939;BME280;24211;49.980;19.776;2024-01-07T09:30:32;99103.81;;;0.25;100.00
38939;BME280;24211;49.980;19.776;2024-01-07T09:33:28;99092.00;;;0.21;100.00
38939;BME280;24211;49.980;19.776;2024-01-07T09:36:21;99087.41;;;0.31;100.00
38939;BME280;24211;49.980;19.776;2024-01-07T09:39:16;99078.03;;;0.28;100.00
38939;BME280;24211;49.980;19.776;2024-01-07T09:41:59;99076.88;;;0.47;100.00
38939;BME280;24211;49.980;19.776;2024-01-07T09:44:27;99072.75;;;0.44;100.00
38939;BME280;24211;49.980;19.776;2024-01-07T09:47:13;99085.06;;;0.52;100.00
38939;BME280;24211;49.980;19.776;2024-01-07T09:49:43;99080.97;;;0.57;100.00
38939;BME280;24211;49.980;19.776;2024-01-07T09:53:01;99072.59;;;0.54;100.00
38939;BME280;24211;49.980;19.776;2024-01-07T09:56:25;99071.94;;;0.52;100.00
38939;BME280;24211;49.980;19.776;2024-01-07T09:58:53;99089.53;;;0.51;100.00
38939;BME280;24211;49.980;19.776;2024-01-07T10:01:20;99118.44;;;0.11;100.00
38939;BME280;24211;49.980;19.776;2024-01-07T10:03:48;99119.94;;;0.22;100.00
38939;BME280;24211;49.980;19.776;2024-01-07T10:06:25;99112.69;;;0.40;100.00
38939;BME280;24211;49.980;19.776;2024-01-07T10:08:53;99101.53;;;0.30;100.00
38939;BME280;24211;49.980;19.776;2024-01-07T10:11:21;99090.69;;;0.33;100.00
38939;BME280;24211;49.980;19.776;2024-01-07T10:14:16;99080.16;;;0.33;100.00
38939;BME280;24211;49.980;19.776;2024-01-07T10:16:58;99078.84;;;0.45;100.00
38939;BME280;24211;49.980;19.776;2024-01-07T10:20:06;99071.28;;;0.50;100.00
38939;BME280;24211;49.980;19.776;2024-01-07T10:23:20;99073.25;;;0.48;100.00
38939;BME280;24211;49.980;19.776;2024-01-07T10:26:40;99071.94;;;0.52;100.00
38939;BME280;24211;49.980;19.776;2024-01-07T10:29:32;99069.97;;;0.30;100.00
38939;BME280;24211;49.980;19.776;2024-01-07T10:32:28;99070.63;;;0.40;100.00
38939;BME280;24211;49.980;19.776;2024-01-07T10:36:02;99067.22;;;0.31;100.00
38939;BME280;24211;49.980;19.776;2024-01-07T10:38:36;99067.03;;;0.41;100.00
38939;BME280;24211;49.980;19.776;2024-01-07T10:41:14;99061.44;;;0.28;100.00
38939;BME280;24211;49.980;19.776;2024-01-07T10:43:49;99113.22;;;1.14;100.00
38939;BME280;24211;49.980;19.776;2024-01-07T10:46:16;99091.22;;;0.99;100.00
38939;BME280;24211;49.980;19.776;2024-01-07T10:52:07;99056.13;;;0.76;100.00
38939;BME280;24211;49.980;19.776;2024-01-07T10:54:56;99059.41;;;0.78;100.00
38939;BME280;24211;49.980;19.776;2024-01-07T10:57:49;99056.78;;;0.78;100.00
38939;BME280;24211;49.980;19.776;2024-01-07T11:00:20;99048.88;;;0.78;100.00
38939;BME280;24211;49.980;19.776;2024-01-07T11:06:34;99050.16;;;0.82;100.00
38939;BME280;24211;49.980;19.776;2024-01-07T11:09:37;99052.63;;;0.84;100.00
38939;BME280;24211;49.980;19.776;2024-01-07T11:12:41;99055.09;;;0.85;100.00
38939;BME280;24211;49.980;19.776;2024-01-07T11:15:58;99055.13;;;0.77;100.00
38939;BME280;24211;49.980;19.776;2024-01-07T11:18:52;99063.69;;;0.71;100.00
38939;BME280;24211;49.980;19.776;2024-01-07T11:21:23;99058.44;;;0.71;100.00
38939;BME280;24211;49.980;19.776;2024-01-07T11:23:53;99058.59;;;0.70;100.00
38939;BME280;24211;49.980;19.776;2024-01-07T11:26:45;99060.06;;;0.64;100.00
38939;BME280;24211;49.980;19.776;2024-01-07T11:29:14;99061.53;;;0.66;100.00
38939;BME280;24211;49.980;19.776;2024-01-07T11:32:06;99063.19;;;0.68;100.00
38939;BME280;24211;49.980;19.776;2024-01-07T11:35:13;99059.59;;;0.69;100.00
38939;BME280;24211;49.980;19.776;2024-01-07T11:37:45;99059.78;;;0.59;100.00
38939;BME280;24211;49.980;19.776;2024-01-07T11:40:14;99072.28;;;0.41;100.00
38939;BME280;24211;49.980;19.776;2024-01-07T11:43:06;99076.22;;;0.45;100.00
38939;BME280;24211;49.980;19.776;2024-01-07T11:45:35;99066.38;;;0.39;100.00
38939;BME280;24211;49.980;19.776;2024-01-07T11:48:04;99081.16;;;0.40;100.00
38939;BME280;24211;49.980;19.776;2024-01-07T11:50:32;99078.53;;;0.16;100.00
38939;BME280;24211;49.980;19.776;2024-01-07T11:53:00;99076.25;;;0.05;100.00
38939;BME280;24211;49.980;19.776;2024-01-07T11:56:32;99083.13;;;0.06;100.00
38939;BME280;24211;49.980;19.776;2024-01-07T11:59:03;99077.56;;;0.09;100.00
38939;BME280;24211;49.980;19.776;2024-01-07T12:05:54;99084.13;;;0.29;100.00
38939;BME280;24211;49.980;19.776;2024-01-07T12:09:12;99079.19;;;0.34;100.00
38939;BME280;24211;49.980;19.776;2024-01-07T12:12:02;99078.53;;;0.32;100.00
38939;BME280;24211;49.980;19.776;2024-01-07T12:15:20;99089.06;;;0.32;100.00
38939;BME280;24211;49.980;19.776;2024-01-07T12:18:10;99084.78;;;0.39;100.00
38939;BME280;24211;49.980;19.776;2024-01-07T12:20:38;99093.31;;;0.41;100.00
38939;BME280;24211;49.980;19.776;2024-01-07T12:23:35;99095.63;;;0.44;100.00
38939;BME280;24211;49.980;19.776;2024-01-07T12:26:13;99107.44;;;0.24;100.00
38939;BME280;24211;49.980;19.776;2024-01-07T12:28:41;99097.41;;;0.35;100.00
38939;BME280;24211;49.980;19.776;2024-01-07T12:31:10;99105.81;;;0.07;100.00
38939;BME280;24211;49.980;19.776;2024-01-07T12:33:38;99104.97;;;0.22;100.00
38939;BME280;24211;49.980;19.776;2024-01-07T12:36:07;99104.34;;;0.12;100.00
38939;BME280;24211;49.980;19.776;2024-01-07T12:38:38;99109.75;;;0.19;100.00
38939;BME280;24211;49.980;19.776;2024-01-07T12:41:14;99103.50;;;0.28;100.00
38939;BME280;24211;49.980;19.776;2024-01-07T12:44:07;99120.25;;;0.19;100.00
38939;BME280;24211;49.980;19.776;2024-01-07T12:46:43;99118.59;;;0.18;100.00
38939;BME280;24211;49.980;19.776;2024-01-07T12:49:15;99126.16;;;0.13;100.00
38939;BME280;24211;49.980;19.776;2024-01-07T12:51:43;99117.44;;;0.20;100.00
38939;BME280;24211;49.980;19.776;2024-01-07T12:54:11;99118.44;;;0.27;100.00
38939;BME280;24211;49.980;19.776;2024-01-07T12:56:38;99121.09;;;0.19;100.00
38939;BME280;24211;49.980;19.776;2024-01-07T12:59:15;99124.53;;;0.28;100.00
38939;BME280;24211;49.980;19.776;2024-01-07T13:01:43;99133.41;;;0.27;100.00
38939;BME280;24211;49.980;19.776;2024-01-07T13:04:11;99128.13;;;0.11;100.00
38939;BME280;24211;49.980;19.776;2024-01-07T13:06:38;99132.41;;;0.12;100.00
38939;BME280;24211;49.980;19.776;2024-01-07T13:09:06;99134.66;;;-0.18;100.00
38939;BME280;24211;49.980;19.776;2024-01-07T13:11:35;99145.09;;;-0.34;100.00
38939;BME280;24211;49.980;19.776;2024-01-07T13:14:24;99142.84;;;-0.21;100.00
38939;BME280;24211;49.980;19.776;2024-01-07T13:17:48;99142.91;;;0.04;100.00
38939;BME280;24211;49.980;19.776;2024-01-07T13:20:45;99154.72;;;0.08;100.00
38939;BME280;24211;49.980;19.776;2024-01-07T13:23:20;99153.56;;;0.10;100.00
38939;BME280;24211;49.980;19.776;2024-01-07T13:25:49;99158.69;;;0.20;100.00
38939;BME280;24211;49.980;19.776;2024-01-07T13:28:16;99147.19;;;0.29;100.00
38939;BME280;24211;49.980;19.776;2024-01-07T13:30:53;99153.44;;;0.36;100.00
38939;BME280;24211;49.980;19.776;2024-01-07T13:34:05;99157.69;;;0.21;100.00
38939;BME280;24211;49.980;19.776;2024-01-07T13:36:33;99160.84;;;0.24;100.00
38939;BME280;24211;49.980;19.776;2024-01-07T13:39:00;99168.38;;;0.19;100.00
38939;BME280;24211;49.980;19.776;2024-01-07T13:41:44;99162.75;;;-0.10;100.00
38939;BME280;24211;49.980;19.776;2024-01-07T13:44:12;99167.50;;;0.03;100.00
38939;BME280;24211;49.980;19.776;2024-01-07T13:46:45;99168.69;;;0.00;100.00
38939;BME280;24211;49.980;19.776;2024-01-07T13:49:13;99165.22;;;0.08;100.00
38939;BME280;24211;49.980;19.776;2024-01-07T13:51:44;99170.47;;;-0.01;100.00
38939;BME280;24211;49.980;19.776;2024-01-07T13:54:11;99174.41;;;-0.13;100.00
38939;BME280;24211;49.980;19.776;2024-01-07T13:57:06;99174.75;;;0.00;100.00
38939;BME280;24211;49.980;19.776;2024-01-07T13:59:59;99185.25;;;0.00;100.00
38939;BME280;24211;49.980;19.776;2024-01-07T14:02:37;99178.53;;;0.06;100.00
38939;BME280;24211;49.980;19.776;2024-01-07T14:05:55;99194.81;;;0.18;100.00
38939;BME280;24211;49.980;19.776;2024-01-07T14:08:23;99184.78;;;0.13;100.00
38939;BME280;24211;49.980;19.776;2024-01-07T14:11:16;99196.13;;;0.14;100.00
38939;BME280;24211;49.980;19.776;2024-01-07T14:13:45;99194.47;;;0.13;100.00
38939;BME280;24211;49.980;19.776;2024-01-07T14:16:14;99207.22;;;-0.09;100.00
38939;BME280;24211;49.980;19.776;2024-01-07T14:18:41;99213.09;;;-0.15;100.00
38939;BME280;24211;49.980;19.776;2024-01-07T14:21:12;99214.44;;;-0.11;100.00
38939;BME280;24211;49.980;19.776;2024-01-07T14:28:55;99214.72;;;-0.30;100.00
38939;BME280;24211;49.980;19.776;2024-01-07T14:31:41;99209.13;;;-0.27;100.00